sensor_id;sensor_type;location;lat;lon;timestamp;pressure;altitude;pressure_sealevel;temperature;humidity
62126;BME280;48112;53.282;6.150;2023-03-08T00:00:08;100024.34;;;16.12;45.80
62126;BME280;48112;53.282;6.150;2023-03-08T00:01:14;100024.75;;;16.10;45.96
62126;BME280;48112;53.282;6.150;2023-03-08T00:02:17;100024.75;;;16.10;45.70
62126;BME280;48112;53.282;6.150;2023-03-08T00:03:19;100023.97;;;16.10;46.02
62126;BME280;48112;53.282;6.150;2023-03-08T00:04:22;100015.78;;;16.10;45.69
62126;BME280;48112;53.282;6.150;2023-03-08T00:05:25;100023.19;;;16.09;45.71
62126;BME280;48112;53.282;6.150;2023-03-08T00:06:28;100033.69;;;16.11;45.71
62126;BME280;48112;53.282;6.150;2023-03-08T00:07:30;100026.69;;;16.10;45.90
62126;BME280;48112;53.282;6.150;2023-03-08T00:08:34;100024.75;;;16.10;45.73
62126;BME280;48112;53.282;6.150;2023-03-08T00:09:37;100025.91;;;16.09;45.74
62126;BME280;48112;53.282;6.150;2023-03-08T00:10:40;100020.47;;;16.09;45.71
62126;BME280;48112;53.282;6.150;2023-03-08T00:11:42;100025.16;;;16.09;45.74
62126;BME280;48112;53.282;6.150;2023-03-08T00:12:45;100027.09;;;16.08;45.82
62126;BME280;48112;53.282;6.150;2023-03-08T00:13:47;100023.19;;;16.09;45.71
62126;BME280;48112;53.282;6.150;2023-03-08T00:14:50;100029.81;;;16.08;45.84
62126;BME280;48112;53.282;6.150;2023-03-08T00:15:52;100029.81;;;16.08;45.88
62126;BME280;48112;53.282;6.150;2023-03-08T00:16:55;100025.53;;;16.07;45.63
62126;BME280;48112;53.282;6.150;2023-03-08T00:17:57;100032.53;;;16.08;45.63
62126;BME280;48112;53.282;6.150;2023-03-08T00:19:00;100018.16;;;16.04;45.79
62126;BME280;48112;53.282;6.150;2023-03-08T00:20:02;100028.63;;;16.09;45.81
62126;BME280;48112;53.282;6.150;2023-03-08T00:21:09;100027.09;;;16.08;45.79
62126;BME280;48112;53.282;6.150;2023-03-08T00:22:11;100031.00;;;16.07;45.76
62126;BME280;48112;53.282;6.150;2023-03-08T00:23:14;100028.28;;;16.07;45.74
62126;BME280;48112;53.282;6.150;2023-03-08T00:24:17;100027.47;;;16.07;45.85
62126;BME280;48112;53.282;6.150;2023-03-08T00:25:20;100027.88;;;16.05;45.57
62126;BME280;48112;53.282;6.150;2023-03-08T00:26:22;100027.88;;;16.05;45.80
62126;BME280;48112;53.282;6.150;2023-03-08T00:27:25;100032.16;;;16.06;45.74
62126;BME280;48112;53.282;6.150;2023-03-08T00:28:28;100037.59;;;16.06;45.35
62126;BME280;48112;53.282;6.150;2023-03-08T00:29:32;100033.31;;;16.05;45.63
62126;BME280;48112;53.282;6.150;2023-03-08T00:30:34;100036.84;;;16.06;45.76
62126;BME280;48112;53.282;6.150;2023-03-08T00:31:37;100043.03;;;16.06;45.72
62126;BME280;48112;53.282;6.150;2023-03-08T00:32:39;100036.84;;;16.06;45.68
62126;BME280;48112;53.282;6.150;2023-03-08T00:33:42;100030.59;;;16.05;45.51
62126;BME280;48112;53.282;6.150;2023-03-08T00:34:49;100033.31;;;16.05;45.58
62126;BME280;48112;53.282;6.150;2023-03-08T00:35:57;100035.66;;;16.03;45.57
62126;BME280;48112;53.282;6.150;2023-03-08T00:36:59;100039.97;;;16.04;45.65
62126;BME280;48112;53.282;6.150;2023-03-08T00:38:02;100033.72;;;16.04;45.60
62126;BME280;48112;53.282;6.150;2023-03-08T00:39:04;100033.72;;;16.04;45.67
62126;BME280;48112;53.282;6.150;2023-03-08T00:40:10;100039.16;;;16.04;45.50
62126;BME280;48112;53.282;6.150;2023-03-08T00:41:12;100032.94;;;16.03;45.51
62126;BME280;48112;53.282;6.150;2023-03-08T00:42:15;100025.56;;;16.04;45.59
62126;BME280;48112;53.282;6.150;2023-03-08T00:43:17;100032.94;;;16.03;45.49
62126;BME280;48112;53.282;6.150;2023-03-08T00:44:20;100030.22;;;16.03;45.53
62126;BME280;48112;53.282;6.150;2023-03-08T00:45:25;100024.78;;;16.03;45.59
62126;BME280;48112;53.282;6.150;2023-03-08T00:46:28;100011.56;;;15.98;45.69
62126;BME280;48112;53.282;6.150;2023-03-08T00:47:30;100025.56;;;16.04;45.55
62126;BME280;48112;53.282;6.150;2023-03-08T00:48:33;100015.06;;;16.02;45.56
62126;BME280;48112;53.282;6.150;2023-03-08T00:49:35;100021.28;;;16.03;45.53
62126;BME280;48112;53.282;6.150;2023-03-08T00:50:38;100027.13;;;16.01;45.76
62126;BME280;48112;53.282;6.150;2023-03-08T00:51:41;100024.00;;;16.03;45.69
62126;BME280;48112;53.282;6.150;2023-03-08T00:52:43;100012.34;;;16.02;45.46
62126;BME280;48112;53.282;6.150;2023-03-08T00:53:47;100025.94;;;16.02;45.69
62126;BME280;48112;53.282;6.150;2023-03-08T00:54:50;100025.16;;;16.02;45.61
62126;BME280;48112;53.282;6.150;2023-03-08T00:55:55;100019.31;;;16.03;45.49
62126;BME280;48112;53.282;6.150;2023-03-08T00:56:58;100029.06;;;16.01;45.56
62126;BME280;48112;53.282;6.150;2023-03-08T00:58:00;100018.97;;;16.01;45.60
62126;BME280;48112;53.282;6.150;2023-03-08T00:59:03;100016.25;;;16.01;45.55
62126;BME280;48112;53.282;6.150;2023-03-08T01:00:06;100015.06;;;16.02;45.80
62126;BME280;48112;53.282;6.150;2023-03-08T01:01:15;100017.41;;;16.00;45.43
62126;BME280;48112;53.282;6.150;2023-03-08T01:02:19;100014.69;;;16.00;45.56
62126;BME280;48112;53.282;6.150;2023-03-08T01:03:23;100012.75;;;16.01;45.35
62126;BME280;48112;53.282;6.150;2023-03-08T01:04:25;100013.53;;;16.01;45.67
62126;BME280;48112;53.282;6.150;2023-03-08T01:05:28;100017.41;;;16.00;45.48
62126;BME280;48112;53.282;6.150;2023-03-08T01:06:30;100011.94;;;16.00;45.50
62126;BME280;48112;53.282;6.150;2023-03-08T01:07:33;100014.69;;;16.00;45.62
62126;BME280;48112;53.282;6.150;2023-03-08T01:08:36;100017.41;;;16.00;45.55
62126;BME280;48112;53.282;6.150;2023-03-08T01:09:40;100007.69;;;15.99;45.54
62126;BME280;48112;53.282;6.150;2023-03-08T01:10:45;100006.50;;;16.00;45.49
62126;BME280;48112;53.282;6.150;2023-03-08T01:11:51;100012.75;;;16.01;45.49
62126;BME280;48112;53.282;6.150;2023-03-08T01:12:54;100001.84;;;15.97;45.55
62126;BME280;48112;53.282;6.150;2023-03-08T01:13:56;100013.13;;;15.99;45.39
62126;BME280;48112;53.282;6.150;2023-03-08T01:14:59;100010.41;;;15.99;45.52
62126;BME280;48112;53.282;6.150;2023-03-08T01:16:01;100010.41;;;15.99;45.47
62126;BME280;48112;53.282;6.150;2023-03-08T01:17:04;100005.72;;;16.00;45.43
62126;BME280;48112;53.282;6.150;2023-03-08T01:18:06;100004.97;;;15.99;45.51
62126;BME280;48112;53.282;6.150;2023-03-08T01:19:09;100004.97;;;15.99;45.40
62126;BME280;48112;53.282;6.150;2023-03-08T01:20:12;100008.84;;;15.98;45.43
62126;BME280;48112;53.282;6.150;2023-03-08T01:21:15;100011.56;;;15.98;45.42
62126;BME280;48112;53.282;6.150;2023-03-08T01:22:18;100016.25;;;15.98;45.49
62126;BME280;48112;53.282;6.150;2023-03-08T01:23:20;100006.13;;;15.98;45.50
62126;BME280;48112;53.282;6.150;2023-03-08T01:24:22;100015.06;;;15.99;45.50
62126;BME280;48112;53.282;6.150;2023-03-08T01:25:26;100015.06;;;15.99;45.46
62126;BME280;48112;53.282;6.150;2023-03-08T01:26:28;100010.41;;;15.99;45.39
62126;BME280;48112;53.282;6.150;2023-03-08T01:27:32;100012.34;;;15.99;45.43
62126;BME280;48112;53.282;6.150;2023-03-08T01:28:34;100011.56;;;15.98;45.38
62126;BME280;48112;53.282;6.150;2023-03-08T01:29:37;100014.28;;;15.98;45.29
62126;BME280;48112;53.282;6.150;2023-03-08T01:30:39;100013.53;;;15.98;45.56
62126;BME280;48112;53.282;6.150;2023-03-08T01:31:42;100005.75;;;15.96;45.51
62126;BME280;48112;53.282;6.150;2023-03-08T01:32:44;100006.13;;;15.98;45.39
62126;BME280;48112;53.282;6.150;2023-03-08T01:33:47;100012.75;;;15.97;45.38
62126;BME280;48112;53.282;6.150;2023-03-08T01:34:49;100001.84;;;15.97;45.40
62126;BME280;48112;53.282;6.150;2023-03-08T01:35:52;100007.69;;;15.96;45.20
62126;BME280;48112;53.282;6.150;2023-03-08T01:36:55;100005.75;;;15.96;45.43
62126;BME280;48112;53.282;6.150;2023-03-08T01:37:58;100004.59;;;15.97;45.51
62126;BME280;48112;53.282;6.150;2023-03-08T01:39:00;99999.13;;;15.97;45.45
62126;BME280;48112;53.282;6.150;2023-03-08T01:40:04;100001.84;;;15.97;45.56
62126;BME280;48112;53.282;6.150;2023-03-08T01:41:11;100003.03;;;15.96;45.40
62126;BME280;48112;53.282;6.150;2023-03-08T01:42:14;99998.75;;;15.95;45.50
62126;BME280;48112;53.282;6.150;2023-03-08T01:43:22;100007.31;;;15.94;45.37
62126;BME280;48112;53.282;6.150;2023-03-08T01:44:26;100007.31;;;15.94;45.77
62126;BME280;48112;53.282;6.150;2023-03-08T01:47:20;100001.13;;;15.86;45.72
62126;BME280;48112;53.282;6.150;2023-03-08T01:48:44;99990.25;;;15.86;45.62
62126;BME280;48112;53.282;6.150;2023-03-08T01:49:52;99990.25;;;15.86;45.55
62126;BME280;48112;53.282;6.150;2023-03-08T01:50:55;99996.06;;;15.88;45.34
62126;BME280;48112;53.282;6.150;2023-03-08T01:52:01;99995.69;;;15.90;45.58
62126;BME280;48112;53.282;6.150;2023-03-08T01:53:06;99993.34;;;15.88;45.53
62126;BME280;48112;53.282;6.150;2023-03-08T01:54:12;99989.44;;;15.89;45.26
62126;BME280;48112;53.282;6.150;2023-03-08T01:55:16;99994.91;;;15.89;45.50
62126;BME280;48112;53.282;6.150;2023-03-08T01:56:20;99991.00;;;15.90;45.43
62126;BME280;48112;53.282;6.150;2023-03-08T01:57:27;99982.06;;;15.86;45.42
62126;BME280;48112;53.282;6.150;2023-03-08T01:58:32;99984.00;;;15.89;45.83
62126;BME280;48112;53.282;6.150;2023-03-08T01:59:36;99981.28;;;15.89;45.53
62126;BME280;48112;53.282;6.150;2023-03-08T02:00:39;99984.78;;;15.90;45.47
62126;BME280;48112;53.282;6.150;2023-03-08T02:01:42;99984.78;;;15.90;45.40
62126;BME280;48112;53.282;6.150;2023-03-08T02:02:49;99984.00;;;15.89;45.23
62126;BME280;48112;53.282;6.150;2023-03-08T02:03:53;99979.34;;;15.86;45.50
62126;BME280;48112;53.282;6.150;2023-03-08T02:04:55;99982.06;;;15.90;45.23
62126;BME280;48112;53.282;6.150;2023-03-08T02:06:00;99984.00;;;15.89;45.26
62126;BME280;48112;53.282;6.150;2023-03-08T02:07:04;99977.78;;;15.89;45.48
62126;BME280;48112;53.282;6.150;2023-03-08T02:08:07;99981.28;;;15.89;45.26
62126;BME280;48112;53.282;6.150;2023-03-08T02:09:12;99978.56;;;15.89;45.39
62126;BME280;48112;53.282;6.150;2023-03-08T02:10:16;99975.84;;;15.89;45.34
62126;BME280;48112;53.282;6.150;2023-03-08T02:11:19;99979.34;;;15.90;45.47
62126;BME280;48112;53.282;6.150;2023-03-08T02:12:25;99977.78;;;15.89;45.45
62126;BME280;48112;53.282;6.150;2023-03-08T02:13:27;99974.28;;;15.88;45.18
62126;BME280;48112;53.282;6.150;2023-03-08T02:14:32;99979.34;;;15.90;45.42
62126;BME280;48112;53.282;6.150;2023-03-08T02:15:34;99978.56;;;15.89;45.46
62126;BME280;48112;53.282;6.150;2023-03-08T02:16:38;99973.91;;;15.86;45.42
62126;BME280;48112;53.282;6.150;2023-03-08T02:17:42;99978.56;;;15.89;45.34
62126;BME280;48112;53.282;6.150;2023-03-08T02:18:55;99977.03;;;15.85;45.26
62126;BME280;48112;53.282;6.150;2023-03-08T02:20:05;99975.09;;;15.85;45.30
62126;BME280;48112;53.282;6.150;2023-03-08T02:21:11;99978.56;;;15.86;45.42
62126;BME280;48112;53.282;6.150;2023-03-08T02:22:15;99978.16;;;15.87;45.22
62126;BME280;48112;53.282;6.150;2023-03-08T02:23:22;99977.41;;;15.87;45.34
62126;BME280;48112;53.282;6.150;2023-03-08T02:24:26;99976.63;;;15.86;45.43
62126;BME280;48112;53.282;6.150;2023-03-08T02:25:28;99974.69;;;15.87;45.32
62126;BME280;48112;53.282;6.150;2023-03-08T02:26:31;99973.50;;;15.88;45.32
62126;BME280;48112;53.282;6.150;2023-03-08T02:27:33;99971.97;;;15.87;45.33
62126;BME280;48112;53.282;6.150;2023-03-08T02:28:36;99975.44;;;15.87;45.38
62126;BME280;48112;53.282;6.150;2023-03-08T02:29:39;99972.72;;;15.87;45.20
62126;BME280;48112;53.282;6.150;2023-03-08T02:30:42;99975.44;;;15.87;45.29
62126;BME280;48112;53.282;6.150;2023-03-08T02:31:44;99968.06;;;15.88;45.33
62126;BME280;48112;53.282;6.150;2023-03-08T02:32:47;99970.78;;;15.88;45.24
62126;BME280;48112;53.282;6.150;2023-03-08T02:33:49;99968.84;;;15.88;45.30
62126;BME280;48112;53.282;6.150;2023-03-08T02:34:52;99968.06;;;15.88;45.32
62126;BME280;48112;53.282;6.150;2023-03-08T02:35:54;99967.28;;;15.87;45.39
62126;BME280;48112;53.282;6.150;2023-03-08T02:36:57;99965.75;;;15.86;45.20
62126;BME280;48112;53.282;6.150;2023-03-08T02:37:58;99961.09;;;15.87;45.29
62126;BME280;48112;53.282;6.150;2023-03-08T02:39:03;99956.03;;;15.85;45.31
62126;BME280;48112;53.282;6.150;2023-03-08T02:40:06;99958.38;;;15.87;45.33
62126;BME280;48112;53.282;6.150;2023-03-08T02:41:09;99964.56;;;15.87;45.34
62126;BME280;48112;53.282;6.150;2023-03-08T02:42:12;99970.00;;;15.87;45.26
62126;BME280;48112;53.282;6.150;2023-03-08T02:43:17;99963.03;;;15.86;45.20
62126;BME280;48112;53.282;6.150;2023-03-08T02:44:20;99971.19;;;15.86;45.31
62126;BME280;48112;53.282;6.150;2023-03-08T02:45:22;99967.69;;;15.86;45.16
62126;BME280;48112;53.282;6.150;2023-03-08T02:46:25;99965.75;;;15.86;45.36
62126;BME280;48112;53.282;6.150;2023-03-08T02:47:28;99971.19;;;15.86;45.30
62126;BME280;48112;53.282;6.150;2023-03-08T02:48:30;99968.47;;;15.86;45.15
62126;BME280;48112;53.282;6.150;2023-03-08T02:49:33;99965.75;;;15.86;44.88
62126;BME280;48112;53.282;6.150;2023-03-08T02:50:35;99963.03;;;15.86;45.26
62126;BME280;48112;53.282;6.150;2023-03-08T02:51:38;99965.75;;;15.86;45.43
62126;BME280;48112;53.282;6.150;2023-03-08T02:52:40;99956.03;;;15.85;45.32
62126;BME280;48112;53.282;6.150;2023-03-08T02:53:43;99964.97;;;15.86;45.32
62126;BME280;48112;53.282;6.150;2023-03-08T02:54:46;99969.25;;;15.87;45.22
62126;BME280;48112;53.282;6.150;2023-03-08T02:55:49;99963.41;;;15.85;45.32
62126;BME280;48112;53.282;6.150;2023-03-08T02:56:52;99958.75;;;15.85;45.13
62126;BME280;48112;53.282;6.150;2023-03-08T02:57:54;99954.53;;;15.77;45.39
62126;BME280;48112;53.282;6.150;2023-03-08T02:58:57;99966.94;;;15.85;45.20
62126;BME280;48112;53.282;6.150;2023-03-08T03:00:01;99965.75;;;15.86;45.36
62126;BME280;48112;53.282;6.150;2023-03-08T03:01:03;99967.69;;;15.86;45.20
62126;BME280;48112;53.282;6.150;2023-03-08T03:02:05;99966.94;;;15.85;44.86
62126;BME280;48112;53.282;6.150;2023-03-08T03:03:07;99960.69;;;15.85;45.24
62126;BME280;48112;53.282;6.150;2023-03-08T03:04:10;99968.88;;;15.85;45.12
62126;BME280;48112;53.282;6.150;2023-03-08T03:05:12;99955.28;;;15.81;45.23
62126;BME280;48112;53.282;6.150;2023-03-08T03:06:18;99951.78;;;15.81;45.11
62126;BME280;48112;53.282;6.150;2023-03-08T03:07:25;99966.53;;;15.83;45.42
62126;BME280;48112;53.282;6.150;2023-03-08T03:08:29;99961.09;;;15.83;45.24
62126;BME280;48112;53.282;6.150;2023-03-08T03:09:33;99959.91;;;15.84;45.16
62126;BME280;48112;53.282;6.150;2023-03-08T03:10:38;99959.91;;;15.84;45.07
62126;BME280;48112;53.282;6.150;2023-03-08T03:11:39;99959.91;;;15.84;45.06
62126;BME280;48112;53.282;6.150;2023-03-08T03:12:43;99962.28;;;15.82;45.23
62126;BME280;48112;53.282;6.150;2023-03-08T03:13:53;99956.06;;;15.82;45.08
62126;BME280;48112;53.282;6.150;2023-03-08T03:14:59;99957.59;;;15.79;45.13
62126;BME280;48112;53.282;6.150;2023-03-08T03:16:05;99951.41;;;15.79;45.16
62126;BME280;48112;53.282;6.150;2023-03-08T03:17:08;99953.72;;;15.80;45.38
62126;BME280;48112;53.282;6.150;2023-03-08T03:18:10;99956.06;;;15.82;45.23
62126;BME280;48112;53.282;6.150;2023-03-08T03:19:13;99956.84;;;15.82;45.14
62126;BME280;48112;53.282;6.150;2023-03-08T03:20:15;99956.84;;;15.82;44.96
62126;BME280;48112;53.282;6.150;2023-03-08T03:21:18;99947.88;;;15.82;44.94
62126;BME280;48112;53.282;6.150;2023-03-08T03:22:20;99957.59;;;15.83;45.15
62126;BME280;48112;53.282;6.150;2023-03-08T03:23:23;99939.72;;;15.78;45.09
62126;BME280;48112;53.282;6.150;2023-03-08T03:24:27;99944.38;;;15.81;45.14
62126;BME280;48112;53.282;6.150;2023-03-08T03:25:35;99956.84;;;15.82;44.97
62126;BME280;48112;53.282;6.150;2023-03-08T03:26:39;99945.94;;;15.82;45.08
62126;BME280;48112;53.282;6.150;2023-03-08T03:27:41;99945.56;;;15.80;44.97
62126;BME280;48112;53.282;6.150;2023-03-08T03:28:44;99947.88;;;15.82;45.18
62126;BME280;48112;53.282;6.150;2023-03-08T03:29:47;99956.06;;;15.82;45.28
62126;BME280;48112;53.282;6.150;2023-03-08T03:30:51;99956.06;;;15.82;45.47
62126;BME280;48112;53.282;6.150;2023-03-08T03:31:54;99950.22;;;15.80;45.18
62126;BME280;48112;53.282;6.150;2023-03-08T03:32:56;99949.06;;;15.81;45.09
62126;BME280;48112;53.282;6.150;2023-03-08T03:34:03;99952.16;;;15.79;45.10
62126;BME280;48112;53.282;6.150;2023-03-08T03:35:06;99951.00;;;15.80;44.97
62126;BME280;48112;53.282;6.150;2023-03-08T03:36:11;99951.00;;;15.80;45.09
62126;BME280;48112;53.282;6.150;2023-03-08T03:37:13;99952.16;;;15.79;45.16
62126;BME280;48112;53.282;6.150;2023-03-08T03:38:16;99946.72;;;15.79;45.15
62126;BME280;48112;53.282;6.150;2023-03-08T03:39:19;99945.56;;;15.80;45.17
62126;BME280;48112;53.282;6.150;2023-03-08T03:40:22;99946.72;;;15.79;45.04
62126;BME280;48112;53.282;6.150;2023-03-08T03:41:29;99939.72;;;15.78;44.96
62126;BME280;48112;53.282;6.150;2023-03-08T03:42:39;99940.53;;;15.79;45.15
62126;BME280;48112;53.282;6.150;2023-03-08T03:43:46;99944.03;;;15.76;45.03
62126;BME280;48112;53.282;6.150;2023-03-08T03:44:49;99938.19;;;15.77;45.00
62126;BME280;48112;53.282;6.150;2023-03-08T03:45:55;99942.44;;;15.78;45.34
62126;BME280;48112;53.282;6.150;2023-03-08T03:46:59;99942.84;;;15.77;45.00
62126;BME280;48112;53.282;6.150;2023-03-08T03:48:02;99947.50;;;15.76;45.10
62126;BME280;48112;53.282;6.150;2023-03-08T03:49:06;99951.81;;;15.77;45.00
62126;BME280;48112;53.282;6.150;2023-03-08T03:50:12;99949.09;;;15.77;45.04
62126;BME280;48112;53.282;6.150;2023-03-08T03:51:29;99955.31;;;15.74;45.09
62126;BME280;48112;53.282;6.150;2023-03-08T03:52:47;99954.94;;;15.72;45.23
62126;BME280;48112;53.282;6.150;2023-03-08T03:53:50;99953.75;;;15.73;45.07
62126;BME280;48112;53.282;6.150;2023-03-08T03:54:54;99947.16;;;15.74;45.14
62126;BME280;48112;53.282;6.150;2023-03-08T03:56:02;99949.09;;;15.74;45.12
62126;BME280;48112;53.282;6.150;2023-03-08T03:57:04;99951.81;;;15.74;45.15
62126;BME280;48112;53.282;6.150;2023-03-08T03:58:12;99955.31;;;15.74;44.99
62126;BME280;48112;53.282;6.150;2023-03-08T03:59:14;99949.88;;;15.74;45.07
62126;BME280;48112;53.282;6.150;2023-03-08T04:00:17;99952.59;;;15.74;45.11
62126;BME280;48112;53.282;6.150;2023-03-08T04:01:28;99952.22;;;15.72;45.12
62126;BME280;48112;53.282;6.150;2023-03-08T04:02:39;99952.22;;;15.72;45.14
62126;BME280;48112;53.282;6.150;2023-03-08T04:03:43;99953.00;;;15.73;45.31
62126;BME280;48112;53.282;6.150;2023-03-08T04:04:47;99948.31;;;15.73;45.29
62126;BME280;48112;53.282;6.150;2023-03-08T04:05:51;99953.00;;;15.73;45.03
62126;BME280;48112;53.282;6.150;2023-03-08T04:06:54;99955.72;;;15.73;45.15
62126;BME280;48112;53.282;6.150;2023-03-08T04:07:59;99958.44;;;15.73;44.98
62126;BME280;48112;53.282;6.150;2023-03-08T04:09:07;99956.47;;;15.73;44.93
62126;BME280;48112;53.282;6.150;2023-03-08T04:10:15;99953.38;;;15.71;44.85
62126;BME280;48112;53.282;6.150;2023-03-08T04:11:20;99953.00;;;15.73;45.18
62126;BME280;48112;53.282;6.150;2023-03-08T04:12:22;99956.47;;;15.73;45.00
62126;BME280;48112;53.282;6.150;2023-03-08T04:13:27;99953.75;;;15.73;45.02
62126;BME280;48112;53.282;6.150;2023-03-08T04:14:29;99947.56;;;15.73;45.02
62126;BME280;48112;53.282;6.150;2023-03-08T04:15:32;99944.03;;;15.72;45.00
62126;BME280;48112;53.282;6.150;2023-03-08T04:16:38;99948.31;;;15.73;44.92
62126;BME280;48112;53.282;6.150;2023-03-08T04:17:49;99945.22;;;15.71;45.14
62126;BME280;48112;53.282;6.150;2023-03-08T04:18:54;99957.66;;;15.72;45.06
62126;BME280;48112;53.282;6.150;2023-03-08T04:19:58;99945.22;;;15.71;45.04
62126;BME280;48112;53.282;6.150;2023-03-08T04:21:02;99950.66;;;15.71;45.04
62126;BME280;48112;53.282;6.150;2023-03-08T04:22:05;99948.69;;;15.72;44.91
62126;BME280;48112;53.282;6.150;2023-03-08T04:23:16;99946.38;;;15.70;44.54
62126;BME280;48112;53.282;6.150;2023-03-08T04:24:20;99949.88;;;15.71;45.02
62126;BME280;48112;53.282;6.150;2023-03-08T04:25:26;99959.97;;;15.70;44.95
62126;BME280;48112;53.282;6.150;2023-03-08T04:26:33;99947.94;;;15.71;45.12
62126;BME280;48112;53.282;6.150;2023-03-08T04:27:35;99943.66;;;15.70;45.05
62126;BME280;48112;53.282;6.150;2023-03-08T04:28:39;99935.09;;;15.72;44.96
62126;BME280;48112;53.282;6.150;2023-03-08T04:29:41;99943.66;;;15.70;45.27
62126;BME280;48112;53.282;6.150;2023-03-08T04:30:44;99939.78;;;15.71;45.03
62126;BME280;48112;53.282;6.150;2023-03-08T04:31:48;99937.44;;;15.70;45.05
62126;BME280;48112;53.282;6.150;2023-03-08T04:32:53;99937.44;;;15.70;45.08
62126;BME280;48112;53.282;6.150;2023-03-08T04:34:00;99932.78;;;15.70;44.97
62126;BME280;48112;53.282;6.150;2023-03-08T04:35:04;99937.44;;;15.70;44.90
62126;BME280;48112;53.282;6.150;2023-03-08T04:36:08;99939.78;;;15.71;44.79
62126;BME280;48112;53.282;6.150;2023-03-08T04:37:12;99937.06;;;15.71;44.90
62126;BME280;48112;53.282;6.150;2023-03-08T04:38:18;99932.00;;;15.70;44.60
62126;BME280;48112;53.282;6.150;2023-03-08T04:39:22;99927.34;;;15.70;44.79
62126;BME280;48112;53.282;6.150;2023-03-08T04:40:26;99935.50;;;15.70;44.96
62126;BME280;48112;53.282;6.150;2023-03-08T04:41:34;99935.88;;;15.69;44.92
62126;BME280;48112;53.282;6.150;2023-03-08T04:42:47;99935.50;;;15.67;45.18
62126;BME280;48112;53.282;6.150;2023-03-08T04:43:56;99937.81;;;15.68;44.97
62126;BME280;48112;53.282;6.150;2023-03-08T04:45:10;99932.03;;;15.66;45.13
62126;BME280;48112;53.282;6.150;2023-03-08T04:46:14;99919.97;;;15.64;44.94
62126;BME280;48112;53.282;6.150;2023-03-08T04:47:17;99937.06;;;15.68;44.90
62126;BME280;48112;53.282;6.150;2023-03-08T04:48:19;99929.66;;;15.68;44.89
62126;BME280;48112;53.282;6.150;2023-03-08T04:49:24;99921.50;;;15.68;45.11
62126;BME280;48112;53.282;6.150;2023-03-08T04:50:32;99933.56;;;15.67;44.83
62126;BME280;48112;53.282;6.150;2023-03-08T04:51:35;99923.47;;;15.68;45.00
62126;BME280;48112;53.282;6.150;2023-03-08T04:52:41;99922.69;;;15.67;44.88
62126;BME280;48112;53.282;6.150;2023-03-08T04:53:42;99924.22;;;15.68;44.70
62126;BME280;48112;53.282;6.150;2023-03-08T04:54:46;99924.22;;;15.68;44.69
62126;BME280;48112;53.282;6.150;2023-03-08T04:55:53;99922.69;;;15.67;44.59
62126;BME280;48112;53.282;6.150;2023-03-08T04:56:57;99921.16;;;15.66;44.50
62126;BME280;48112;53.282;6.150;2023-03-08T04:57:59;99924.22;;;15.68;44.85
62126;BME280;48112;53.282;6.150;2023-03-08T04:59:06;99918.03;;;15.68;44.91
62126;BME280;48112;53.282;6.150;2023-03-08T05:00:09;99916.06;;;15.68;44.91
62126;BME280;48112;53.282;6.150;2023-03-08T05:01:18;99911.78;;;15.67;44.86
62126;BME280;48112;53.282;6.150;2023-03-08T05:02:21;99912.97;;;15.66;45.42
62126;BME280;48112;53.282;6.150;2023-03-08T05:03:24;99911.78;;;15.67;44.99
62126;BME280;48112;53.282;6.150;2023-03-08T05:04:27;99906.34;;;15.67;44.84
62126;BME280;48112;53.282;6.150;2023-03-08T05:05:30;99910.63;;;15.68;45.00
62126;BME280;48112;53.282;6.150;2023-03-08T05:06:32;99912.59;;;15.68;44.82
62126;BME280;48112;53.282;6.150;2023-03-08T05:07:35;99906.34;;;15.67;44.83
62126;BME280;48112;53.282;6.150;2023-03-08T05:08:37;99907.91;;;15.68;45.05
62126;BME280;48112;53.282;6.150;2023-03-08T05:09:40;99903.63;;;15.67;44.86
62126;BME280;48112;53.282;6.150;2023-03-08T05:10:46;99913.34;;;15.68;44.96
62126;BME280;48112;53.282;6.150;2023-03-08T05:11:49;99908.28;;;15.67;44.97
62126;BME280;48112;53.282;6.150;2023-03-08T05:12:51;99906.34;;;15.67;44.90
62126;BME280;48112;53.282;6.150;2023-03-08T05:13:56;99898.97;;;15.68;44.78
62126;BME280;48112;53.282;6.150;2023-03-08T05:15:03;99901.69;;;15.68;44.97
62126;BME280;48112;53.282;6.150;2023-03-08T05:16:06;99906.34;;;15.67;44.92
62126;BME280;48112;53.282;6.150;2023-03-08T05:17:09;99904.81;;;15.66;44.81
62126;BME280;48112;53.282;6.150;2023-03-08T05:18:12;99899.38;;;15.66;44.94
62126;BME280;48112;53.282;6.150;2023-03-08T05:19:15;99893.94;;;15.66;44.91
62126;BME280;48112;53.282;6.150;2023-03-08T05:20:22;99892.38;;;15.65;44.90
62126;BME280;48112;53.282;6.150;2023-03-08T05:21:25;99887.31;;;15.64;44.99
62126;BME280;48112;53.282;6.150;2023-03-08T05:22:32;99893.16;;;15.66;44.91
62126;BME280;48112;53.282;6.150;2023-03-08T05:23:52;99890.94;;;15.40;45.30
62126;BME280;48112;53.282;6.150;2023-03-08T05:24:57;99898.25;;;15.53;45.20
62126;BME280;48112;53.282;6.150;2023-03-08T05:26:02;99888.50;;;15.59;45.10
62126;BME280;48112;53.282;6.150;2023-03-08T05:27:06;99890.06;;;15.60;45.06
62126;BME280;48112;53.282;6.150;2023-03-08T05:28:09;99885.41;;;15.61;45.03
62126;BME280;48112;53.282;6.150;2023-03-08T05:29:17;99890.06;;;15.60;44.91
62126;BME280;48112;53.282;6.150;2023-03-08T05:30:21;99886.19;;;15.61;44.95
62126;BME280;48112;53.282;6.150;2023-03-08T05:31:25;99888.91;;;15.61;44.68
62126;BME280;48112;53.282;6.150;2023-03-08T05:32:28;99885.41;;;15.61;44.69
62126;BME280;48112;53.282;6.150;2023-03-08T05:33:32;99886.19;;;15.61;44.84
62126;BME280;48112;53.282;6.150;2023-03-08T05:34:34;99882.66;;;15.61;44.88
62126;BME280;48112;53.282;6.150;2023-03-08T05:35:39;99881.13;;;15.60;44.95
62126;BME280;48112;53.282;6.150;2023-03-08T05:36:41;99883.84;;;15.63;44.83
62126;BME280;48112;53.282;6.150;2023-03-08T05:37:45;99891.63;;;15.61;44.88
62126;BME280;48112;53.282;6.150;2023-03-08T05:38:51;99885.00;;;15.62;44.77
62126;BME280;48112;53.282;6.150;2023-03-08T05:39:57;99883.16;;;15.38;45.26